EGNR METAR and TAF | Updated Today

EGNR METAR

Hawarden Airport

Observation time: 9 min. ago

EGNR 010820Z 25009KT 9999 FEW024 14/09 Q1003

Need help? Read our tutorial on how to read METARs or read the parsed version below.

Hawarden Airport (EGNR) METAR

  • Weather conditions on Sat, 01 Oct 2022 08:20:00 +0000 (9 min. ago):
  • Present conditions: Dry
  • Clouds: A few at 732 meters
  • Visibility: Greater than 10 km
  • Wind: 250 degrees at 9 knots
  • Temperature: 14 celsius
  • Dew point: 9 celsius
  • Pressure: 1003 millibars
  • Remarks: None


Useful to know...

EGNR TAF

Hawarden Airport

TAF EGNR 010728Z 0107/0115 25010KT 9999 FEW025 TEMPO 0111/0115 6000 SHRA PROB30 TEMPO 0111/0115 27015G26KT 3000 +SHRA BKN014
Observation time: 61 min. ago
Need help? Read our tutorial on how to read TAFs or read the parsed version below.

Parsed version of TAF for Hawarden Airport (EGNR)

  • From 01 October at 07:00 UTC, to day 01 of the month at 15:00 UTC
  • Clouds: A few at 762 meters
  • Visibility: Greater than 10 km
  • Wind: 250 degrees at 10
  • Expected to arise temporarily, from 01 October at 11:00 UTC, to day 01 of the month at 15:00 UTC
  • Visibility: 6000 meters
  • Other: Showers of rain
  • Expected to arise temporarily, from 01 October at 11:00 UTC, to day 01 of the month at 15:00 UTC
    Probability of 30%
  • Clouds: Broken sky at 427 meters
  • Visibility: 3000 meters
  • Wind: 270 degrees at 15
  • Other: Strong showers of rain